sensor_id;sensor_type;location;lat;lon;timestamp;pressure;altitude;pressure_sealevel;temperature;humidity
9249;BME280;4660;41.768;26.198;2023-09-19T00:02:16;101221.19;;;15.70;100.00
9249;BME280;4660;41.768;26.198;2023-09-19T00:04:43;101220.84;;;15.65;100.00
9249;BME280;4660;41.768;26.198;2023-09-19T00:07:08;101206.03;;;15.59;100.00
9249;BME280;4660;41.768;26.198;2023-09-19T00:09:35;101203.97;;;15.53;100.00
9249;BME280;4660;41.768;26.198;2023-09-19T00:12:06;101207.31;;;15.47;100.00
9249;BME280;4660;41.768;26.198;2023-09-19T00:14:32;101213.81;;;15.28;100.00
9249;BME280;4660;41.768;26.198;2023-09-19T00:17:04;101196.38;;;15.31;100.00
9249;BME280;4660;41.768;26.198;2023-09-19T00:19:36;101196.38;;;15.31;100.00
9249;BME280;4660;41.768;26.198;2023-09-19T00:22:03;101199.81;;;15.41;100.00
9249;BME280;4660;41.768;26.198;2023-09-19T00:24:29;101199.34;;;15.46;100.00
9249;BME280;4660;41.768;26.198;2023-09-19T00:26:55;101202.53;;;15.41;100.00
9249;BME280;4660;41.768;26.198;2023-09-19T00:29:25;101212.69;;;15.39;100.00
9249;BME280;4660;41.768;26.198;2023-09-19T00:31:55;101215.19;;;15.32;100.00
9249;BME280;4660;41.768;26.198;2023-09-19T00:34:22;101197.03;;;15.25;100.00
9249;BME280;4660;41.768;26.198;2023-09-19T00:36:48;101192.81;;;15.30;100.00
9249;BME280;4660;41.768;26.198;2023-09-19T00:39:13;101193.69;;;15.31;100.00
9249;BME280;4660;41.768;26.198;2023-09-19T00:41:39;101183.09;;;15.20;100.00
9249;BME280;4660;41.768;26.198;2023-09-19T00:44:06;101222.50;;;15.14;100.00
9249;BME280;4660;41.768;26.198;2023-09-19T00:46:31;101210.31;;;14.92;100.00
9249;BME280;4660;41.768;26.198;2023-09-19T00:48:57;101208.84;;;14.98;100.00
9249;BME280;4660;41.768;26.198;2023-09-19T00:51:25;101206.69;;;15.01;100.00
9249;BME280;4660;41.768;26.198;2023-09-19T00:53:51;101211.03;;;14.94;100.00
9249;BME280;4660;41.768;26.198;2023-09-19T00:56:18;101218.22;;;14.85;100.00
9249;BME280;4660;41.768;26.198;2023-09-19T00:58:45;101222.91;;;14.75;100.00
9249;BME280;4660;41.768;26.198;2023-09-19T01:01:15;101226.91;;;14.71;100.00
9249;BME280;4660;41.768;26.198;2023-09-19T01:03:42;101207.66;;;14.56;100.00
9249;BME280;4660;41.768;26.198;2023-09-19T01:06:08;101216.84;;;14.64;100.00
9249;BME280;4660;41.768;26.198;2023-09-19T01:08:34;101219.50;;;14.55;100.00
9249;BME280;4660;41.768;26.198;2023-09-19T01:21:46;101226.63;;;14.56;100.00
9249;BME280;4660;41.768;26.198;2023-09-19T01:24:42;101211.69;;;14.52;100.00
9249;BME280;4660;41.768;26.198;2023-09-19T01:30:09;101211.38;;;14.55;100.00
9249;BME280;4660;41.768;26.198;2023-09-19T01:32:36;101215.66;;;14.58;100.00
9249;BME280;4660;41.768;26.198;2023-09-19T01:35:03;101219.59;;;14.46;100.00
9249;BME280;4660;41.768;26.198;2023-09-19T01:37:31;101216.44;;;14.50;100.00
9249;BME280;4660;41.768;26.198;2023-09-19T01:40:30;101218.25;;;14.50;100.00
9249;BME280;4660;41.768;26.198;2023-09-19T01:43:08;101211.69;;;14.52;100.00
9249;BME280;4660;41.768;26.198;2023-09-19T01:45:48;101222.44;;;14.62;100.00
9249;BME280;4660;41.768;26.198;2023-09-19T01:48:51;101223.69;;;14.68;100.00
9249;BME280;4660;41.768;26.198;2023-09-19T01:51:33;101213.41;;;14.53;100.00
9249;BME280;4660;41.768;26.198;2023-09-19T01:54:03;101222.56;;;14.43;100.00
9249;BME280;4660;41.768;26.198;2023-09-19T01:56:42;101229.09;;;14.50;100.00
9249;BME280;4660;41.768;26.198;2023-09-19T01:59:13;101217.34;;;14.59;100.00
9249;BME280;4660;41.768;26.198;2023-09-19T02:01:42;101230.50;;;14.72;100.00
9249;BME280;4660;41.768;26.198;2023-09-19T02:04:10;101229.56;;;14.63;100.00
9249;BME280;4660;41.768;26.198;2023-09-19T02:06:40;101221.06;;;14.58;100.00
9249;BME280;4660;41.768;26.198;2023-09-19T02:09:05;101218.50;;;14.56;100.00
9249;BME280;4660;41.768;26.198;2023-09-19T02:11:31;101219.91;;;14.61;100.00
9249;BME280;4660;41.768;26.198;2023-09-19T02:13:57;101218.78;;;14.71;100.00
9249;BME280;4660;41.768;26.198;2023-09-19T02:16:22;101233.56;;;14.77;100.00
9249;BME280;4660;41.768;26.198;2023-09-19T02:18:51;101221.44;;;14.81;100.00
9249;BME280;4660;41.768;26.198;2023-09-19T02:21:17;101216.88;;;14.81;100.00
9249;BME280;4660;41.768;26.198;2023-09-19T02:23:46;101223.22;;;14.72;100.00
9249;BME280;4660;41.768;26.198;2023-09-19T02:26:13;101222.59;;;14.61;100.00
9249;BME280;4660;41.768;26.198;2023-09-19T02:28:39;101215.00;;;14.64;100.00
9249;BME280;4660;41.768;26.198;2023-09-19T02:31:05;101214.25;;;14.72;100.00
9249;BME280;4660;41.768;26.198;2023-09-19T02:33:31;101218.19;;;14.59;100.00
9249;BME280;4660;41.768;26.198;2023-09-19T02:35:58;101209.38;;;14.57;100.00
9249;BME280;4660;41.768;26.198;2023-09-19T02:38:27;101217.88;;;14.63;100.00
9249;BME280;4660;41.768;26.198;2023-09-19T02:40:53;101210.44;;;14.47;100.00
9249;BME280;4660;41.768;26.198;2023-09-19T02:43:21;101213.44;;;14.44;100.00
9249;BME280;4660;41.768;26.198;2023-09-19T02:45:47;101216.94;;;14.36;100.00
9249;BME280;4660;41.768;26.198;2023-09-19T02:48:15;101214.97;;;14.28;100.00
9249;BME280;4660;41.768;26.198;2023-09-19T02:50:40;101216.13;;;14.26;100.00
9249;BME280;4660;41.768;26.198;2023-09-19T02:53:06;101209.94;;;14.16;100.00
9249;BME280;4660;41.768;26.198;2023-09-19T02:55:32;101198.81;;;14.19;100.00
9249;BME280;4660;41.768;26.198;2023-09-19T02:57:58;101205.38;;;14.16;100.00
9249;BME280;4660;41.768;26.198;2023-09-19T03:00:24;101205.91;;;14.20;100.00
9249;BME280;4660;41.768;26.198;2023-09-19T03:02:58;101204.44;;;14.08;100.00
9249;BME280;4660;41.768;26.198;2023-09-19T03:05:25;101203.56;;;14.07;100.00
9249;BME280;4660;41.768;26.198;2023-09-19T03:07:51;101204.44;;;14.08;100.00
9249;BME280;4660;41.768;26.198;2023-09-19T03:10:21;101204.09;;;13.93;100.00
9249;BME280;4660;41.768;26.198;2023-09-19T03:12:49;101207.16;;;14.08;100.00
9249;BME280;4660;41.768;26.198;2023-09-19T03:15:15;101192.13;;;13.95;100.00
9249;BME280;4660;41.768;26.198;2023-09-19T03:17:46;101195.31;;;14.09;100.00
9249;BME280;4660;41.768;26.198;2023-09-19T03:20:13;101193.22;;;14.02;100.00
9249;BME280;4660;41.768;26.198;2023-09-19T03:22:40;101196.00;;;14.11;100.00
9249;BME280;4660;41.768;26.198;2023-09-19T03:25:06;101197.78;;;14.02;100.00
9249;BME280;4660;41.768;26.198;2023-09-19T03:27:37;101177.69;;;13.77;100.00
9249;BME280;4660;41.768;26.198;2023-09-19T03:30:04;101181.41;;;13.76;100.00
9249;BME280;4660;41.768;26.198;2023-09-19T03:32:34;101184.63;;;13.89;100.00
9249;BME280;4660;41.768;26.198;2023-09-19T03:35:00;101187.91;;;13.83;100.00
9249;BME280;4660;41.768;26.198;2023-09-19T03:37:26;101186.03;;;13.93;100.00
9249;BME280;4660;41.768;26.198;2023-09-19T03:39:51;101177.78;;;13.85;100.00
9249;BME280;4660;41.768;26.198;2023-09-19T03:42:17;101184.28;;;13.92;100.00
9249;BME280;4660;41.768;26.198;2023-09-19T03:44:43;101182.31;;;14.12;100.00
9249;BME280;4660;41.768;26.198;2023-09-19T03:47:08;101178.84;;;14.20;100.00
9249;BME280;4660;41.768;26.198;2023-09-19T03:49:34;101164.31;;;14.21;100.00
9249;BME280;4660;41.768;26.198;2023-09-19T03:52:00;101169.97;;;14.27;100.00
9249;BME280;4660;41.768;26.198;2023-09-19T03:54:26;101184.66;;;14.43;100.00
9249;BME280;4660;41.768;26.198;2023-09-19T03:56:51;101185.06;;;14.30;100.00
9249;BME280;4660;41.768;26.198;2023-09-19T03:59:17;101181.06;;;14.07;100.00
9249;BME280;4660;41.768;26.198;2023-09-19T04:01:43;101188.41;;;13.96;100.00
9249;BME280;4660;41.768;26.198;2023-09-19T04:04:09;101168.69;;;13.86;100.00
9249;BME280;4660;41.768;26.198;2023-09-19T04:06:34;101187.38;;;13.80;100.00
9249;BME280;4660;41.768;26.198;2023-09-19T04:09:01;101181.91;;;13.89;100.00
9249;BME280;4660;41.768;26.198;2023-09-19T04:11:27;101195.44;;;13.89;100.00
9249;BME280;4660;41.768;26.198;2023-09-19T04:13:52;101190.19;;;14.05;100.00
9249;BME280;4660;41.768;26.198;2023-09-19T04:16:18;101190.44;;;13.94;100.00
9249;BME280;4660;41.768;26.198;2023-09-19T04:18:44;101189.38;;;13.77;100.00
9249;BME280;4660;41.768;26.198;2023-09-19T04:21:09;101189.94;;;13.81;100.00
9249;BME280;4660;41.768;26.198;2023-09-19T04:23:35;101191.38;;;13.75;100.00
9249;BME280;4660;41.768;26.198;2023-09-19T04:26:00;101191.31;;;13.85;100.00
9249;BME280;4660;41.768;26.198;2023-09-19T04:28:26;101197.56;;;13.86;100.00
9249;BME280;4660;41.768;26.198;2023-09-19T04:30:53;101191.13;;;13.69;100.00
9249;BME280;4660;41.768;26.198;2023-09-19T04:33:18;101198.47;;;13.76;100.00
9249;BME280;4660;41.768;26.198;2023-09-19T04:35:44;101188.47;;;13.87;100.00
9249;BME280;4660;41.768;26.198;2023-09-19T04:38:10;101190.47;;;13.85;100.00
9249;BME280;4660;41.768;26.198;2023-09-19T04:40:35;101200.16;;;13.87;100.00
9249;BME280;4660;41.768;26.198;2023-09-19T04:43:01;101197.19;;;13.81;100.00
9249;BME280;4660;41.768;26.198;2023-09-19T04:45:27;101201.00;;;13.88;100.00
9249;BME280;4660;41.768;26.198;2023-09-19T04:47:54;101204.91;;;14.21;100.00
9249;BME280;4660;41.768;26.198;2023-09-19T04:50:20;101199.00;;;14.53;100.00
9249;BME280;4660;41.768;26.198;2023-09-19T04:52:50;101201.34;;;14.20;100.00
9249;BME280;4660;41.768;26.198;2023-09-19T04:55:17;101209.84;;;14.08;100.00
9249;BME280;4660;41.768;26.198;2023-09-19T04:57:44;101200.66;;;14.18;100.00
9249;BME280;4660;41.768;26.198;2023-09-19T05:00:12;101197.25;;;14.34;100.00
9249;BME280;4660;41.768;26.198;2023-09-19T05:02:38;101203.59;;;14.25;100.00
9249;BME280;4660;41.768;26.198;2023-09-19T05:05:09;101197.78;;;14.20;100.00
9249;BME280;4660;41.768;26.198;2023-09-19T05:07:45;101200.81;;;14.35;100.00
9249;BME280;4660;41.768;26.198;2023-09-19T05:10:11;101192.78;;;14.25;100.00
9249;BME280;4660;41.768;26.198;2023-09-19T05:12:38;101215.13;;;14.27;100.00
9249;BME280;4660;41.768;26.198;2023-09-19T05:15:07;101196.00;;;14.28;100.00
9249;BME280;4660;41.768;26.198;2023-09-19T05:17:33;101199.59;;;14.29;100.00
9249;BME280;4660;41.768;26.198;2023-09-19T05:20:00;101191.56;;;14.37;100.00
9249;BME280;4660;41.768;26.198;2023-09-19T05:22:42;101192.94;;;14.41;100.00
9249;BME280;4660;41.768;26.198;2023-09-19T05:25:11;101188.63;;;14.48;100.00
9249;BME280;4660;41.768;26.198;2023-09-19T05:27:42;101183.13;;;14.76;100.00
9249;BME280;4660;41.768;26.198;2023-09-19T05:30:08;101165.13;;;14.67;100.00
9249;BME280;4660;41.768;26.198;2023-09-19T05:32:34;101187.97;;;14.90;100.00
9249;BME280;4660;41.768;26.198;2023-09-19T05:34:59;101201.13;;;15.03;100.00
9249;BME280;4660;41.768;26.198;2023-09-19T05:37:25;101199.09;;;15.05;100.00
9249;BME280;4660;41.768;26.198;2023-09-19T05:39:51;101201.38;;;15.18;100.00
9249;BME280;4660;41.768;26.198;2023-09-19T05:42:19;101195.31;;;15.24;100.00
9249;BME280;4660;41.768;26.198;2023-09-19T05:44:44;101182.06;;;15.21;100.00
9249;BME280;4660;41.768;26.198;2023-09-19T05:47:10;101196.44;;;15.39;100.00
9249;BME280;4660;41.768;26.198;2023-09-19T05:49:35;101180.88;;;15.49;100.00
9249;BME280;4660;41.768;26.198;2023-09-19T05:52:07;101195.25;;;15.67;100.00
9249;BME280;4660;41.768;26.198;2023-09-19T05:54:33;101201.09;;;15.89;100.00
9249;BME280;4660;41.768;26.198;2023-09-19T05:57:00;101205.25;;;16.09;100.00
9249;BME280;4660;41.768;26.198;2023-09-19T05:59:25;101197.09;;;16.09;100.00
9249;BME280;4660;41.768;26.198;2023-09-19T06:01:51;101200.03;;;16.24;100.00
9249;BME280;4660;41.768;26.198;2023-09-19T06:04:17;101200.88;;;16.33;100.00
9249;BME280;4660;41.768;26.198;2023-09-19T06:06:44;101215.97;;;16.35;100.00
9249;BME280;4660;41.768;26.198;2023-09-19T06:09:10;101206.97;;;16.35;100.00
9249;BME280;4660;41.768;26.198;2023-09-19T06:11:36;101214.66;;;16.56;100.00
9249;BME280;4660;41.768;26.198;2023-09-19T06:14:03;101212.19;;;16.87;100.00
9249;BME280;4660;41.768;26.198;2023-09-19T06:16:29;101214.88;;;16.95;100.00
9249;BME280;4660;41.768;26.198;2023-09-19T06:18:55;101209.44;;;16.95;100.00
9249;BME280;4660;41.768;26.198;2023-09-19T06:21:24;101209.44;;;17.03;100.00
9249;BME280;4660;41.768;26.198;2023-09-19T06:23:53;101215.22;;;17.08;100.00
9249;BME280;4660;41.768;26.198;2023-09-19T06:26:19;101206.88;;;17.18;100.00
9249;BME280;4660;41.768;26.198;2023-09-19T06:28:45;101212.09;;;17.44;100.00
9249;BME280;4660;41.768;26.198;2023-09-19T06:31:11;101203.22;;;17.58;100.00
9249;BME280;4660;41.768;26.198;2023-09-19T06:33:37;101221.16;;;17.83;100.00
9249;BME280;4660;41.768;26.198;2023-09-19T06:36:06;101221.13;;;17.92;100.00
9249;BME280;4660;41.768;26.198;2023-09-19T06:38:32;101210.84;;;18.10;100.00
9249;BME280;4660;41.768;26.198;2023-09-19T06:40:59;101204.13;;;18.21;100.00
9249;BME280;4660;41.768;26.198;2023-09-19T06:43:26;101209.50;;;18.37;100.00
9249;BME280;4660;41.768;26.198;2023-09-19T06:45:53;101207.56;;;18.46;100.00
9249;BME280;4660;41.768;26.198;2023-09-19T06:48:27;101231.28;;;18.68;100.00
9249;BME280;4660;41.768;26.198;2023-09-19T06:50:56;101226.53;;;18.85;100.00
9249;BME280;4660;41.768;26.198;2023-09-19T06:53:24;101228.00;;;18.95;100.00
9249;BME280;4660;41.768;26.198;2023-09-19T06:55:50;101211.34;;;19.05;100.00
9249;BME280;4660;41.768;26.198;2023-09-19T06:58:16;101208.19;;;19.16;100.00
9249;BME280;4660;41.768;26.198;2023-09-19T07:00:42;101225.34;;;19.40;100.00
9249;BME280;4660;41.768;26.198;2023-09-19T07:03:08;101233.63;;;19.46;100.00
9249;BME280;4660;41.768;26.198;2023-09-19T07:05:38;101234.66;;;19.45;100.00
9249;BME280;4660;41.768;26.198;2023-09-19T07:08:09;101221.56;;;19.41;100.00
9249;BME280;4660;41.768;26.198;2023-09-19T07:10:39;101225.06;;;19.49;100.00
9249;BME280;4660;41.768;26.198;2023-09-19T07:13:14;101223.97;;;19.59;100.00
9249;BME280;4660;41.768;26.198;2023-09-19T07:15:43;101221.16;;;19.82;100.00
9249;BME280;4660;41.768;26.198;2023-09-19T07:18:16;101215.19;;;19.93;100.00
9249;BME280;4660;41.768;26.198;2023-09-19T07:20:42;101210.91;;;20.20;100.00
9249;BME280;4660;41.768;26.198;2023-09-19T07:23:21;101204.53;;;20.34;100.00
9249;BME280;4660;41.768;26.198;2023-09-19T07:25:49;101187.00;;;20.22;100.00
9249;BME280;4660;41.768;26.198;2023-09-19T07:28:15;101217.56;;;20.32;100.00
9249;BME280;4660;41.768;26.198;2023-09-19T07:30:42;101200.59;;;20.37;100.00
9249;BME280;4660;41.768;26.198;2023-09-19T07:33:08;101203.47;;;20.50;100.00
9249;BME280;4660;41.768;26.198;2023-09-19T07:35:38;101196.41;;;20.55;100.00
9249;BME280;4660;41.768;26.198;2023-09-19T07:38:08;101165.31;;;20.42;100.00
9249;BME280;4660;41.768;26.198;2023-09-19T07:40:35;101197.06;;;20.57;100.00
9249;BME280;4660;41.768;26.198;2023-09-19T07:43:01;101205.69;;;20.82;100.00
9249;BME280;4660;41.768;26.198;2023-09-19T07:45:28;101182.91;;;20.75;100.00
9249;BME280;4660;41.768;26.198;2023-09-19T07:47:55;101197.78;;;21.15;100.00
9249;BME280;4660;41.768;26.198;2023-09-19T07:50:22;101192.91;;;21.39;100.00
9249;BME280;4660;41.768;26.198;2023-09-19T07:52:48;101170.59;;;21.42;100.00
9249;BME280;4660;41.768;26.198;2023-09-19T07:55:17;101176.22;;;21.68;100.00
9249;BME280;4660;41.768;26.198;2023-09-19T07:57:44;101165.16;;;21.90;100.00
9249;BME280;4660;41.768;26.198;2023-09-19T08:00:10;101180.91;;;22.22;100.00
9249;BME280;4660;41.768;26.198;2023-09-19T08:02:36;101162.75;;;22.21;100.00
9249;BME280;4660;41.768;26.198;2023-09-19T08:05:07;101178.63;;;22.39;100.00
9249;BME280;4660;41.768;26.198;2023-09-19T08:07:41;101179.25;;;22.48;100.00
9249;BME280;4660;41.768;26.198;2023-09-19T08:10:07;101175.09;;;22.65;100.00
9249;BME280;4660;41.768;26.198;2023-09-19T08:12:36;101171.28;;;22.79;100.00
9249;BME280;4660;41.768;26.198;2023-09-19T08:15:05;101171.53;;;22.98;100.00
9249;BME280;4660;41.768;26.198;2023-09-19T08:17:34;101169.63;;;23.05;100.00
9249;BME280;4660;41.768;26.198;2023-09-19T08:20:00;101155.44;;;23.28;100.00
9249;BME280;4660;41.768;26.198;2023-09-19T08:22:26;101159.59;;;23.50;100.00
9249;BME280;4660;41.768;26.198;2023-09-19T08:24:52;101164.06;;;23.45;100.00
9249;BME280;4660;41.768;26.198;2023-09-19T08:27:18;101168.91;;;23.49;100.00
9249;BME280;4660;41.768;26.198;2023-09-19T08:29:46;101158.97;;;23.55;100.00
9249;BME280;4660;41.768;26.198;2023-09-19T08:32:12;101160.03;;;23.60;100.00
9249;BME280;4660;41.768;26.198;2023-09-19T08:34:37;101150.44;;;23.83;100.00
9249;BME280;4660;41.768;26.198;2023-09-19T08:37:03;101145.09;;;23.95;100.00
9249;BME280;4660;41.768;26.198;2023-09-19T08:39:30;101144.78;;;24.16;100.00
9249;BME280;4660;41.768;26.198;2023-09-19T08:42:02;101136.31;;;24.17;100.00
9249;BME280;4660;41.768;26.198;2023-09-19T08:44:28;101126.50;;;24.28;100.00
9249;BME280;4660;41.768;26.198;2023-09-19T08:47:09;101135.75;;;24.72;100.00
9249;BME280;4660;41.768;26.198;2023-09-19T08:52:32;101121.34;;;24.70;100.00
9249;BME280;4660;41.768;26.198;2023-09-19T08:55:02;101123.16;;;24.83;100.00
9249;BME280;4660;41.768;26.198;2023-09-19T08:57:36;101124.22;;;24.82;100.00
9249;BME280;4660;41.768;26.198;2023-09-19T09:00:07;101124.38;;;24.62;100.00
9249;BME280;4660;41.768;26.198;2023-09-19T09:02:38;101127.03;;;24.75;100.00
9249;BME280;4660;41.768;26.198;2023-09-19T09:05:08;101107.28;;;25.03;100.00
9249;BME280;4660;41.768;26.198;2023-09-19T09:07:36;101113.06;;;25.20;100.00
9249;BME280;4660;41.768;26.198;2023-09-19T09:10:02;101103.72;;;25.21;100.00
9249;BME280;4660;41.768;26.198;2023-09-19T09:12:29;101093.56;;;25.21;100.00
9249;BME280;4660;41.768;26.198;2023-09-19T09:14:55;101096.94;;;25.23;100.00
9249;BME280;4660;41.768;26.198;2023-09-19T09:17:23;101105.72;;;25.14;100.00
9249;BME280;4660;41.768;26.198;2023-09-19T09:19:52;101095.66;;;25.44;100.00
9249;BME280;4660;41.768;26.198;2023-09-19T09:22:19;101088.22;;;25.45;100.00
9249;BME280;4660;41.768;26.198;2023-09-19T09:24:57;101081.94;;;25.38;100.00
9249;BME280;4660;41.768;26.198;2023-09-19T09:27:30;101080.31;;;25.48;100.00
9249;BME280;4660;41.768;26.198;2023-09-19T09:29:58;101068.88;;;25.63;100.00
9249;BME280;4660;41.768;26.198;2023-09-19T09:32:28;101078.00;;;25.82;100.00
9249;BME280;4660;41.768;26.198;2023-09-19T09:34:56;101072.50;;;25.82;100.00
9249;BME280;4660;41.768;26.198;2023-09-19T09:37:22;101077.44;;;25.92;100.00
9249;BME280;4660;41.768;26.198;2023-09-19T09:39:54;101074.31;;;25.70;100.00
9249;BME280;4660;41.768;26.198;2023-09-19T09:42:34;101073.47;;;25.69;100.00
9249;BME280;4660;41.768;26.198;2023-09-19T09:45:16;101052.66;;;26.03;100.00
9249;BME280;4660;41.768;26.198;2023-09-19T09:48:03;101058.97;;;26.34;100.00
9249;BME280;4660;41.768;26.198;2023-09-19T09:50:36;101064.03;;;26.37;88.77
9249;BME280;4660;41.768;26.198;2023-09-19T09:53:23;101067.94;;;26.59;87.58
9249;BME280;4660;41.768;26.198;2023-09-19T09:55:58;101061.91;;;26.63;85.85
9249;BME280;4660;41.768;26.198;2023-09-19T09:58:28;101057.63;;;26.25;86.58
9249;BME280;4660;41.768;26.198;2023-09-19T10:01:01;101071.59;;;26.42;86.20
9249;BME280;4660;41.768;26.198;2023-09-19T10:03:39;101044.88;;;26.54;82.97
9249;BME280;4660;41.768;26.198;2023-09-19T10:06:10;101043.06;;;26.83;82.57
9249;BME280;4660;41.768;26.198;2023-09-19T10:09:04;101030.56;;;26.92;81.06
9249;BME280;4660;41.768;26.198;2023-09-19T10:11:39;101024.22;;;27.03;80.30
9249;BME280;4660;41.768;26.198;2023-09-19T10:14:07;101024.09;;;27.10;79.98
9249;BME280;4660;41.768;26.198;2023-09-19T10:16:35;101033.56;;;27.26;78.00
9249;BME280;4660;41.768;26.198;2023-09-19T10:19:07;101021.22;;;27.17;77.85
9249;BME280;4660;41.768;26.198;2023-09-19T10:21:36;101017.84;;;27.03;77.94
9249;BME280;4660;41.768;26.198;2023-09-19T10:24:03;101019.91;;;26.84;78.39
9249;BME280;4660;41.768;26.198;2023-09-19T10:26:34;101005.00;;;26.85;77.79
9249;BME280;4660;41.768;26.198;2023-09-19T10:29:01;100992.88;;;26.86;77.15
9249;BME280;4660;41.768;26.198;2023-09-19T10:31:29;100991.91;;;27.15;74.17
9249;BME280;4660;41.768;26.198;2023-09-19T10:34:02;101001.38;;;27.20;73.48
9249;BME280;4660;41.768;26.198;2023-09-19T10:36:32;101004.91;;;27.15;73.89
9249;BME280;4660;41.768;26.198;2023-09-19T10:39:01;101015.16;;;27.31;72.85
9249;BME280;4660;41.768;26.198;2023-09-19T10:41:32;101000.50;;;27.31;72.54
9249;BME280;4660;41.768;26.198;2023-09-19T10:44:03;100998.06;;;27.46;71.24
9249;BME280;4660;41.768;26.198;2023-09-19T10:46:31;100993.78;;;27.55;70.35
9249;BME280;4660;41.768;26.198;2023-09-19T10:49:01;100986.78;;;27.64;70.52
9249;BME280;4660;41.768;26.198;2023-09-19T10:51:39;100988.97;;;27.91;69.43
9249;BME280;4660;41.768;26.198;2023-09-19T10:54:12;100966.50;;;27.87;67.19
9249;BME280;4660;41.768;26.198;2023-09-19T10:56:42;100979.66;;;27.97;66.90
9249;BME280;4660;41.768;26.198;2023-09-19T10:59:12;100961.41;;;27.96;66.61
9249;BME280;4660;41.768;26.198;2023-09-19T11:01:45;100972.47;;;27.79;66.52
9249;BME280;4660;41.768;26.198;2023-09-19T11:04:30;100959.56;;;28.02;66.34
9249;BME280;4660;41.768;26.198;2023-09-19T11:07:14;100967.09;;;27.73;66.76
9249;BME280;4660;41.768;26.198;2023-09-19T11:09:54;100958.84;;;27.78;67.65
9249;BME280;4660;41.768;26.198;2023-09-19T11:15:03;100945.97;;;27.83;65.96
9249;BME280;4660;41.768;26.198;2023-09-19T11:17:35;100943.88;;;27.90;65.76
9249;BME280;4660;41.768;26.198;2023-09-19T11:30:33;100941.44;;;28.11;60.86
9249;BME280;4660;41.768;26.198;2023-09-19T11:33:18;100932.88;;;27.79;61.85
9249;BME280;4660;41.768;26.198;2023-09-19T11:36:13;100934.81;;;27.78;62.15
9249;BME280;4660;41.768;26.198;2023-09-19T11:46:18;100911.53;;;27.46;62.61
9249;BME280;4660;41.768;26.198;2023-09-19T11:48:51;100915.22;;;27.80;62.23
9249;BME280;4660;41.768;26.198;2023-09-19T11:51:21;100904.66;;;27.77;62.19
9249;BME280;4660;41.768;26.198;2023-09-19T11:54:01;100907.44;;;27.93;60.65
9249;BME280;4660;41.768;26.198;2023-09-19T11:56:28;100909.22;;;28.21;60.15
9249;BME280;4660;41.768;26.198;2023-09-19T11:58:57;100896.44;;;28.32;59.96
9249;BME280;4660;41.768;26.198;2023-09-19T12:01:33;100905.78;;;28.70;58.66
9249;BME280;4660;41.768;26.198;2023-09-19T12:04:01;100895.09;;;28.78;61.96
9249;BME280;4660;41.768;26.198;2023-09-19T12:06:30;100893.63;;;28.71;62.06
9249;BME280;4660;41.768;26.198;2023-09-19T12:08:58;100872.19;;;28.22;63.49
9249;BME280;4660;41.768;26.198;2023-09-19T12:11:28;100874.34;;;28.20;63.71
9249;BME280;4660;41.768;26.198;2023-09-19T12:13:54;100885.09;;;28.17;65.68
9249;BME280;4660;41.768;26.198;2023-09-19T12:16:23;100878.88;;;28.27;67.37
9249;BME280;4660;41.768;26.198;2023-09-19T12:18:50;100863.28;;;28.20;67.08
9249;BME280;4660;41.768;26.198;2023-09-19T12:21:23;100868.31;;;28.40;65.68
9249;BME280;4660;41.768;26.198;2023-09-19T12:24:11;100866.53;;;28.51;61.61
9249;BME280;4660;41.768;26.198;2023-09-19T12:26:45;100850.81;;;28.57;62.01
9249;BME280;4660;41.768;26.198;2023-09-19T12:29:22;100860.81;;;28.79;60.54
9249;BME280;4660;41.768;26.198;2023-09-19T12:31:55;100852.16;;;28.98;60.84
9249;BME280;4660;41.768;26.198;2023-09-19T12:34:32;100860.91;;;29.12;60.29
9249;BME280;4660;41.768;26.198;2023-09-19T12:37:14;100863.56;;;29.28;59.15
9249;BME280;4660;41.768;26.198;2023-09-19T12:40:09;100854.03;;;29.46;59.48
9249;BME280;4660;41.768;26.198;2023-09-19T12:43:07;100848.22;;;29.48;57.82
9249;BME280;4660;41.768;26.198;2023-09-19T12:45:35;100843.16;;;29.40;56.89
9249;BME280;4660;41.768;26.198;2023-09-19T12:51:06;100840.25;;;29.24;58.28
9249;BME280;4660;41.768;26.198;2023-09-19T12:53:46;100838.38;;;29.30;58.51
9249;BME280;4660;41.768;26.198;2023-09-19T12:56:15;100830.78;;;29.20;55.56
9249;BME280;4660;41.768;26.198;2023-09-19T12:58:57;100775.38;;;28.93;55.44
9249;BME280;4660;41.768;26.198;2023-09-19T13:01:25;100794.88;;;29.30;55.10
9249;BME280;4660;41.768;26.198;2023-09-19T13:06:38;100833.97;;;29.61;54.28
9249;BME280;4660;41.768;26.198;2023-09-19T13:09:09;100827.00;;;29.58;53.35
9249;BME280;4660;41.768;26.198;2023-09-19T13:11:37;100832.00;;;29.94;52.75
9249;BME280;4660;41.768;26.198;2023-09-19T13:14:26;100824.28;;;30.06;51.42
9249;BME280;4660;41.768;26.198;2023-09-19T13:17:03;100816.47;;;29.98;52.27
9249;BME280;4660;41.768;26.198;2023-09-19T13:19:48;100817.00;;;29.95;52.67
9249;BME280;4660;41.768;26.198;2023-09-19T13:22:44;100815.34;;;29.94;51.84
9249;BME280;4660;41.768;26.198;2023-09-19T13:25:23;100809.34;;;29.70;54.32
9249;BME280;4660;41.768;26.198;2023-09-19T13:27:51;100774.88;;;29.28;56.72
9249;BME280;4660;41.768;26.198;2023-09-19T13:30:18;100801.31;;;29.09;58.72
9249;BME280;4660;41.768;26.198;2023-09-19T13:32:44;100809.25;;;28.78;58.13
9249;BME280;4660;41.768;26.198;2023-09-19T13:35:12;100803.78;;;28.84;58.65
9249;BME280;4660;41.768;26.198;2023-09-19T13:37:39;100805.59;;;28.95;57.39
9249;BME280;4660;41.768;26.198;2023-09-19T13:40:14;100802.63;;;29.01;57.43
9249;BME280;4660;41.768;26.198;2023-09-19T13:42:41;100789.88;;;29.32;56.89
9249;BME280;4660;41.768;26.198;2023-09-19T13:45:07;100800.06;;;29.54;55.49
9249;BME280;4660;41.768;26.198;2023-09-19T13:47:33;100811.16;;;29.54;54.04
9249;BME280;4660;41.768;26.198;2023-09-19T13:50:01;100801.28;;;29.68;53.88